sensor_id;sensor_type;location;lat;lon;timestamp;P1;durP1;ratioP1;P2;durP2;ratioP2
49784;SDS011;35679;38.732;-121.358;2023-05-10T00:00:59;3.83;;;3.55;;
49784;SDS011;35679;38.732;-121.358;2023-05-10T00:03:48;3.90;;;3.60;;
49784;SDS011;35679;38.732;-121.358;2023-05-10T00:06:38;4.18;;;3.67;;
49784;SDS011;35679;38.732;-121.358;2023-05-10T00:09:28;4.13;;;3.70;;
49784;SDS011;35679;38.732;-121.358;2023-05-10T00:12:18;4.10;;;3.80;;
49784;SDS011;35679;38.732;-121.358;2023-05-10T00:15:07;4.10;;;3.53;;
49784;SDS011;35679;38.732;-121.358;2023-05-10T00:17:57;3.67;;;3.40;;
49784;SDS011;35679;38.732;-121.358;2023-05-10T00:20:47;5.10;;;3.42;;
49784;SDS011;35679;38.732;-121.358;2023-05-10T00:23:37;3.90;;;3.60;;
49784;SDS011;35679;38.732;-121.358;2023-05-10T00:26:26;5.95;;;3.45;;
49784;SDS011;35679;38.732;-121.358;2023-05-10T00:29:16;3.70;;;3.40;;
49784;SDS011;35679;38.732;-121.358;2023-05-10T00:32:05;4.32;;;3.75;;
49784;SDS011;35679;38.732;-121.358;2023-05-10T00:34:55;3.78;;;3.42;;
49784;SDS011;35679;38.732;-121.358;2023-05-10T00:37:44;4.18;;;3.78;;
49784;SDS011;35679;38.732;-121.358;2023-05-10T00:40:35;3.38;;;3.10;;
49784;SDS011;35679;38.732;-121.358;2023-05-10T00:43:34;3.47;;;3.22;;
49784;SDS011;35679;38.732;-121.358;2023-05-10T00:46:24;3.70;;;3.40;;
49784;SDS011;35679;38.732;-121.358;2023-05-10T00:49:14;3.90;;;3.60;;
49784;SDS011;35679;38.732;-121.358;2023-05-10T00:52:04;3.67;;;3.38;;
49784;SDS011;35679;38.732;-121.358;2023-05-10T00:54:54;3.55;;;3.10;;
49784;SDS011;35679;38.732;-121.358;2023-05-10T00:57:44;3.63;;;3.33;;
49784;SDS011;35679;38.732;-121.358;2023-05-10T01:00:34;3.05;;;2.85;;
49784;SDS011;35679;38.732;-121.358;2023-05-10T01:03:25;3.37;;;3.03;;
49784;SDS011;35679;38.732;-121.358;2023-05-10T01:06:15;3.70;;;3.40;;
49784;SDS011;35679;38.732;-121.358;2023-05-10T01:09:04;4.22;;;3.80;;
49784;SDS011;35679;38.732;-121.358;2023-05-10T01:11:54;3.95;;;3.40;;
49784;SDS011;35679;38.732;-121.358;2023-05-10T01:14:45;3.55;;;3.25;;
49784;SDS011;35679;38.732;-121.358;2023-05-10T01:17:35;3.25;;;3.05;;
49784;SDS011;35679;38.732;-121.358;2023-05-10T01:20:30;3.78;;;3.03;;
49784;SDS011;35679;38.732;-121.358;2023-05-10T01:29:24;3.20;;;2.90;;
49784;SDS011;35679;38.732;-121.358;2023-05-10T01:42:03;3.40;;;3.10;;
49784;SDS011;35679;38.732;-121.358;2023-05-10T01:45:02;3.35;;;3.05;;
49784;SDS011;35679;38.732;-121.358;2023-05-10T01:48:06;3.28;;;3.08;;
49784;SDS011;35679;38.732;-121.358;2023-05-10T01:50:58;3.58;;;3.28;;
49784;SDS011;35679;38.732;-121.358;2023-05-10T01:53:48;3.13;;;2.90;;
49784;SDS011;35679;38.732;-121.358;2023-05-10T01:56:41;3.65;;;3.35;;
49784;SDS011;35679;38.732;-121.358;2023-05-10T01:59:34;3.70;;;3.10;;
49784;SDS011;35679;38.732;-121.358;2023-05-10T02:02:30;3.20;;;3.00;;
49784;SDS011;35679;38.732;-121.358;2023-05-10T02:05:24;3.67;;;3.08;;
49784;SDS011;35679;38.732;-121.358;2023-05-10T02:08:16;3.40;;;3.13;;
49784;SDS011;35679;38.732;-121.358;2023-05-10T02:11:07;3.85;;;3.20;;
49784;SDS011;35679;38.732;-121.358;2023-05-10T02:14:00;3.53;;;2.83;;
49784;SDS011;35679;38.732;-121.358;2023-05-10T02:16:52;3.63;;;3.42;;
49784;SDS011;35679;38.732;-121.358;2023-05-10T02:19:43;3.47;;;3.00;;
49784;SDS011;35679;38.732;-121.358;2023-05-10T02:22:35;3.53;;;3.23;;
49784;SDS011;35679;38.732;-121.358;2023-05-10T02:25:26;3.42;;;3.17;;
49784;SDS011;35679;38.732;-121.358;2023-05-10T02:28:17;3.10;;;2.90;;
49784;SDS011;35679;38.732;-121.358;2023-05-10T02:31:08;3.45;;;3.22;;
49784;SDS011;35679;38.732;-121.358;2023-05-10T02:34:00;3.15;;;2.95;;
49784;SDS011;35679;38.732;-121.358;2023-05-10T02:36:51;3.20;;;3.00;;
49784;SDS011;35679;38.732;-121.358;2023-05-10T02:39:42;3.63;;;2.90;;
49784;SDS011;35679;38.732;-121.358;2023-05-10T02:42:35;2.50;;;2.40;;
49784;SDS011;35679;38.732;-121.358;2023-05-10T02:45:27;3.30;;;3.00;;
49784;SDS011;35679;38.732;-121.358;2023-05-10T02:51:08;2.95;;;2.65;;
49784;SDS011;35679;38.732;-121.358;2023-05-10T02:54:06;3.40;;;3.10;;
49784;SDS011;35679;38.732;-121.358;2023-05-10T02:57:00;3.38;;;3.17;;
49784;SDS011;35679;38.732;-121.358;2023-05-10T02:59:54;3.45;;;3.15;;
49784;SDS011;35679;38.732;-121.358;2023-05-10T03:02:44;3.08;;;2.88;;
49784;SDS011;35679;38.732;-121.358;2023-05-10T03:05:33;3.30;;;3.10;;
49784;SDS011;35679;38.732;-121.358;2023-05-10T03:08:23;3.35;;;3.05;;
49784;SDS011;35679;38.732;-121.358;2023-05-10T03:16:57;2.75;;;2.55;;
49784;SDS011;35679;38.732;-121.358;2023-05-10T03:19:53;3.28;;;3.08;;
49784;SDS011;35679;38.732;-121.358;2023-05-10T03:22:47;2.78;;;2.58;;
49784;SDS011;35679;38.732;-121.358;2023-05-10T03:25:41;3.10;;;2.90;;
49784;SDS011;35679;38.732;-121.358;2023-05-10T03:28:32;3.00;;;2.80;;
49784;SDS011;35679;38.732;-121.358;2023-05-10T03:31:24;2.88;;;2.67;;
49784;SDS011;35679;38.732;-121.358;2023-05-10T03:34:15;3.10;;;2.90;;
49784;SDS011;35679;38.732;-121.358;2023-05-10T03:37:06;3.00;;;2.80;;
49784;SDS011;35679;38.732;-121.358;2023-05-10T03:39:55;3.20;;;2.90;;
49784;SDS011;35679;38.732;-121.358;2023-05-10T03:42:45;2.80;;;2.60;;
49784;SDS011;35679;38.732;-121.358;2023-05-10T03:45:34;2.95;;;2.75;;
49784;SDS011;35679;38.732;-121.358;2023-05-10T03:48:24;3.30;;;3.00;;
49784;SDS011;35679;38.732;-121.358;2023-05-10T03:51:14;3.15;;;2.90;;
49784;SDS011;35679;38.732;-121.358;2023-05-10T03:54:03;3.40;;;2.95;;
49784;SDS011;35679;38.732;-121.358;2023-05-10T03:56:52;3.80;;;3.10;;
49784;SDS011;35679;38.732;-121.358;2023-05-10T03:59:42;3.15;;;2.88;;
49784;SDS011;35679;38.732;-121.358;2023-05-10T04:02:32;3.13;;;2.92;;
49784;SDS011;35679;38.732;-121.358;2023-05-10T04:05:22;3.05;;;2.85;;
49784;SDS011;35679;38.732;-121.358;2023-05-10T04:08:12;3.20;;;3.00;;
49784;SDS011;35679;38.732;-121.358;2023-05-10T04:11:05;3.10;;;2.90;;
49784;SDS011;35679;38.732;-121.358;2023-05-10T04:13:55;3.20;;;3.00;;
49784;SDS011;35679;38.732;-121.358;2023-05-10T04:16:45;3.10;;;2.90;;
49784;SDS011;35679;38.732;-121.358;2023-05-10T04:19:34;3.20;;;3.00;;
49784;SDS011;35679;38.732;-121.358;2023-05-10T04:22:23;3.30;;;3.00;;
49784;SDS011;35679;38.732;-121.358;2023-05-10T04:25:13;3.25;;;3.05;;
49784;SDS011;35679;38.732;-121.358;2023-05-10T04:28:02;3.13;;;2.92;;
49784;SDS011;35679;38.732;-121.358;2023-05-10T04:30:52;2.85;;;2.65;;
49784;SDS011;35679;38.732;-121.358;2023-05-10T04:33:41;3.40;;;3.10;;
49784;SDS011;35679;38.732;-121.358;2023-05-10T04:36:31;3.58;;;2.80;;
49784;SDS011;35679;38.732;-121.358;2023-05-10T04:39:25;3.10;;;2.90;;
49784;SDS011;35679;38.732;-121.358;2023-05-10T04:42:14;2.97;;;2.78;;
49784;SDS011;35679;38.732;-121.358;2023-05-10T04:45:03;3.08;;;2.88;;
49784;SDS011;35679;38.732;-121.358;2023-05-10T04:47:53;3.03;;;2.83;;
49784;SDS011;35679;38.732;-121.358;2023-05-10T04:50:42;3.03;;;2.83;;
49784;SDS011;35679;38.732;-121.358;2023-05-10T04:53:32;3.10;;;2.90;;
49784;SDS011;35679;38.732;-121.358;2023-05-10T04:56:21;2.75;;;2.55;;
49784;SDS011;35679;38.732;-121.358;2023-05-10T04:59:10;2.83;;;2.63;;
49784;SDS011;35679;38.732;-121.358;2023-05-10T05:02:00;2.67;;;2.55;;
49784;SDS011;35679;38.732;-121.358;2023-05-10T05:04:49;2.83;;;2.70;;
49784;SDS011;35679;38.732;-121.358;2023-05-10T05:07:39;2.90;;;2.70;;
49784;SDS011;35679;38.732;-121.358;2023-05-10T05:10:28;2.83;;;2.70;;
49784;SDS011;35679;38.732;-121.358;2023-05-10T05:13:18;3.20;;;3.00;;
49784;SDS011;35679;38.732;-121.358;2023-05-10T05:16:07;2.45;;;2.35;;
49784;SDS011;35679;38.732;-121.358;2023-05-10T05:18:57;2.63;;;2.47;;
49784;SDS011;35679;38.732;-121.358;2023-05-10T05:21:46;2.70;;;2.50;;
49784;SDS011;35679;38.732;-121.358;2023-05-10T05:24:35;3.20;;;2.95;;
49784;SDS011;35679;38.732;-121.358;2023-05-10T05:30:17;2.60;;;2.40;;
49784;SDS011;35679;38.732;-121.358;2023-05-10T05:33:06;2.40;;;2.30;;
49784;SDS011;35679;38.732;-121.358;2023-05-10T05:35:56;2.90;;;2.50;;
49784;SDS011;35679;38.732;-121.358;2023-05-10T05:38:45;2.80;;;2.60;;
49784;SDS011;35679;38.732;-121.358;2023-05-10T05:41:35;2.40;;;2.30;;
49784;SDS011;35679;38.732;-121.358;2023-05-10T05:44:24;2.80;;;2.60;;
49784;SDS011;35679;38.732;-121.358;2023-05-10T05:47:13;2.53;;;2.42;;
49784;SDS011;35679;38.732;-121.358;2023-05-10T05:50:03;2.45;;;2.25;;
49784;SDS011;35679;38.732;-121.358;2023-05-10T05:52:52;2.70;;;2.53;;
49784;SDS011;35679;38.732;-121.358;2023-05-10T05:55:52;2.65;;;2.33;;
49784;SDS011;35679;38.732;-121.358;2023-05-10T05:58:46;2.63;;;2.53;;
49784;SDS011;35679;38.732;-121.358;2023-05-10T06:01:35;2.30;;;2.20;;
49784;SDS011;35679;38.732;-121.358;2023-05-10T06:04:25;2.80;;;2.60;;
49784;SDS011;35679;38.732;-121.358;2023-05-10T06:07:14;2.50;;;2.40;;
49784;SDS011;35679;38.732;-121.358;2023-05-10T06:10:04;2.70;;;2.50;;
49784;SDS011;35679;38.732;-121.358;2023-05-10T06:12:54;2.20;;;2.10;;
49784;SDS011;35679;38.732;-121.358;2023-05-10T06:15:43;2.58;;;2.40;;
49784;SDS011;35679;38.732;-121.358;2023-05-10T06:18:32;2.45;;;2.35;;
49784;SDS011;35679;38.732;-121.358;2023-05-10T06:21:22;2.50;;;2.30;;
49784;SDS011;35679;38.732;-121.358;2023-05-10T06:24:12;4.20;;;2.30;;
49784;SDS011;35679;38.732;-121.358;2023-05-10T06:27:01;2.60;;;2.40;;
49784;SDS011;35679;38.732;-121.358;2023-05-10T06:29:52;2.35;;;2.25;;
49784;SDS011;35679;38.732;-121.358;2023-05-10T06:32:55;2.53;;;2.40;;
49784;SDS011;35679;38.732;-121.358;2023-05-10T06:35:45;2.50;;;2.40;;
49784;SDS011;35679;38.732;-121.358;2023-05-10T06:38:34;2.63;;;2.42;;
49784;SDS011;35679;38.732;-121.358;2023-05-10T06:41:24;2.75;;;2.60;;
49784;SDS011;35679;38.732;-121.358;2023-05-10T06:44:13;2.60;;;2.50;;
49784;SDS011;35679;38.732;-121.358;2023-05-10T06:47:03;3.22;;;2.33;;
49784;SDS011;35679;38.732;-121.358;2023-05-10T06:49:52;2.20;;;2.10;;
49784;SDS011;35679;38.732;-121.358;2023-05-10T06:52:42;2.20;;;2.10;;
49784;SDS011;35679;38.732;-121.358;2023-05-10T06:55:31;2.60;;;2.50;;
49784;SDS011;35679;38.732;-121.358;2023-05-10T06:58:21;2.95;;;2.33;;
49784;SDS011;35679;38.732;-121.358;2023-05-10T07:01:10;2.70;;;2.50;;
49784;SDS011;35679;38.732;-121.358;2023-05-10T07:04:00;2.40;;;2.30;;
49784;SDS011;35679;38.732;-121.358;2023-05-10T07:06:49;2.50;;;2.40;;
49784;SDS011;35679;38.732;-121.358;2023-05-10T07:09:39;2.50;;;2.30;;
49784;SDS011;35679;38.732;-121.358;2023-05-10T07:12:28;2.30;;;2.20;;
49784;SDS011;35679;38.732;-121.358;2023-05-10T07:15:17;2.60;;;2.38;;
49784;SDS011;35679;38.732;-121.358;2023-05-10T07:18:07;2.45;;;2.25;;
49784;SDS011;35679;38.732;-121.358;2023-05-10T07:20:57;2.35;;;2.25;;
49784;SDS011;35679;38.732;-121.358;2023-05-10T07:23:46;2.53;;;2.42;;
49784;SDS011;35679;38.732;-121.358;2023-05-10T07:26:36;2.22;;;2.13;;
49784;SDS011;35679;38.732;-121.358;2023-05-10T07:29:25;2.72;;;2.38;;
49784;SDS011;35679;38.732;-121.358;2023-05-10T07:32:15;2.33;;;2.20;;
49784;SDS011;35679;38.732;-121.358;2023-05-10T07:35:04;2.15;;;2.03;;
49784;SDS011;35679;38.732;-121.358;2023-05-10T07:37:55;4.35;;;2.10;;
49784;SDS011;35679;38.732;-121.358;2023-05-10T07:40:44;2.30;;;2.20;;
49784;SDS011;35679;38.732;-121.358;2023-05-10T07:43:33;2.47;;;2.30;;
49784;SDS011;35679;38.732;-121.358;2023-05-10T07:46:23;2.40;;;2.20;;
49784;SDS011;35679;38.732;-121.358;2023-05-10T07:49:12;2.50;;;2.38;;
49784;SDS011;35679;38.732;-121.358;2023-05-10T07:52:02;2.83;;;2.55;;
49784;SDS011;35679;38.732;-121.358;2023-05-10T07:54:52;2.75;;;2.38;;
49784;SDS011;35679;38.732;-121.358;2023-05-10T07:57:41;2.50;;;2.08;;
49784;SDS011;35679;38.732;-121.358;2023-05-10T08:00:31;2.38;;;2.17;;
49784;SDS011;35679;38.732;-121.358;2023-05-10T08:03:20;2.28;;;2.00;;
49784;SDS011;35679;38.732;-121.358;2023-05-10T08:06:09;2.17;;;2.08;;
49784;SDS011;35679;38.732;-121.358;2023-05-10T08:08:59;2.20;;;2.10;;
49784;SDS011;35679;38.732;-121.358;2023-05-10T08:11:49;2.22;;;2.03;;
49784;SDS011;35679;38.732;-121.358;2023-05-10T08:14:39;2.22;;;2.00;;
49784;SDS011;35679;38.732;-121.358;2023-05-10T08:17:28;2.20;;;2.10;;
49784;SDS011;35679;38.732;-121.358;2023-05-10T08:20:17;2.38;;;2.17;;
49784;SDS011;35679;38.732;-121.358;2023-05-10T08:23:07;2.25;;;2.15;;
49784;SDS011;35679;38.732;-121.358;2023-05-10T08:25:56;2.30;;;2.20;;
49784;SDS011;35679;38.732;-121.358;2023-05-10T08:28:45;3.50;;;2.13;;
49784;SDS011;35679;38.732;-121.358;2023-05-10T08:31:35;2.20;;;2.10;;
49784;SDS011;35679;38.732;-121.358;2023-05-10T08:34:24;2.08;;;1.98;;
49784;SDS011;35679;38.732;-121.358;2023-05-10T08:37:14;2.05;;;1.90;;
49784;SDS011;35679;38.732;-121.358;2023-05-10T08:40:03;2.10;;;2.00;;
49784;SDS011;35679;38.732;-121.358;2023-05-10T08:43:02;2.10;;;2.00;;
49784;SDS011;35679;38.732;-121.358;2023-05-10T08:45:55;2.10;;;2.00;;
49784;SDS011;35679;38.732;-121.358;2023-05-10T08:48:47;2.97;;;2.00;;
49784;SDS011;35679;38.732;-121.358;2023-05-10T08:51:38;2.10;;;2.00;;
49784;SDS011;35679;38.732;-121.358;2023-05-10T08:54:33;2.65;;;2.45;;
49784;SDS011;35679;38.732;-121.358;2023-05-10T08:57:22;2.13;;;2.03;;
49784;SDS011;35679;38.732;-121.358;2023-05-10T09:00:12;2.20;;;2.03;;
49784;SDS011;35679;38.732;-121.358;2023-05-10T09:03:03;2.10;;;2.00;;
49784;SDS011;35679;38.732;-121.358;2023-05-10T09:05:54;2.20;;;2.05;;
49784;SDS011;35679;38.732;-121.358;2023-05-10T09:08:46;2.20;;;2.00;;
49784;SDS011;35679;38.732;-121.358;2023-05-10T09:11:36;2.00;;;1.90;;
49784;SDS011;35679;38.732;-121.358;2023-05-10T09:14:25;2.20;;;2.10;;
49784;SDS011;35679;38.732;-121.358;2023-05-10T09:17:15;2.55;;;2.17;;
49784;SDS011;35679;38.732;-121.358;2023-05-10T09:20:05;3.10;;;2.00;;
49784;SDS011;35679;38.732;-121.358;2023-05-10T09:22:55;2.17;;;2.08;;
49784;SDS011;35679;38.732;-121.358;2023-05-10T09:25:44;2.30;;;2.00;;
49784;SDS011;35679;38.732;-121.358;2023-05-10T09:28:34;1.83;;;1.80;;
49784;SDS011;35679;38.732;-121.358;2023-05-10T09:34:39;3.40;;;2.00;;
49784;SDS011;35679;38.732;-121.358;2023-05-10T09:37:29;2.10;;;2.00;;
49784;SDS011;35679;38.732;-121.358;2023-05-10T09:40:19;1.80;;;1.70;;
49784;SDS011;35679;38.732;-121.358;2023-05-10T09:43:10;2.03;;;1.90;;
49784;SDS011;35679;38.732;-121.358;2023-05-10T09:45:59;2.10;;;1.90;;
49784;SDS011;35679;38.732;-121.358;2023-05-10T09:48:58;2.13;;;2.03;;
49784;SDS011;35679;38.732;-121.358;2023-05-10T09:51:57;2.00;;;1.90;;
49784;SDS011;35679;38.732;-121.358;2023-05-10T09:54:52;1.80;;;1.70;;
49784;SDS011;35679;38.732;-121.358;2023-05-10T09:57:42;2.15;;;2.05;;
49784;SDS011;35679;38.732;-121.358;2023-05-10T10:00:35;1.98;;;1.88;;
49784;SDS011;35679;38.732;-121.358;2023-05-10T10:03:26;3.13;;;1.95;;
49784;SDS011;35679;38.732;-121.358;2023-05-10T10:06:18;2.30;;;2.10;;
49784;SDS011;35679;38.732;-121.358;2023-05-10T10:09:16;2.00;;;1.90;;
49784;SDS011;35679;38.732;-121.358;2023-05-10T10:12:06;2.38;;;2.10;;
49784;SDS011;35679;38.732;-121.358;2023-05-10T10:14:57;4.47;;;2.10;;
49784;SDS011;35679;38.732;-121.358;2023-05-10T10:17:49;2.03;;;1.80;;
49784;SDS011;35679;38.732;-121.358;2023-05-10T10:20:40;1.92;;;1.83;;
49784;SDS011;35679;38.732;-121.358;2023-05-10T10:23:30;2.00;;;1.90;;
49784;SDS011;35679;38.732;-121.358;2023-05-10T10:26:19;1.83;;;1.83;;
49784;SDS011;35679;38.732;-121.358;2023-05-10T10:35:20;2.10;;;2.00;;
49784;SDS011;35679;38.732;-121.358;2023-05-10T10:38:10;2.20;;;2.10;;
49784;SDS011;35679;38.732;-121.358;2023-05-10T10:41:02;1.92;;;1.83;;
49784;SDS011;35679;38.732;-121.358;2023-05-10T10:47:22;2.03;;;1.92;;
49784;SDS011;35679;38.732;-121.358;2023-05-10T10:50:21;2.05;;;1.95;;
49784;SDS011;35679;38.732;-121.358;2023-05-10T10:53:10;2.00;;;1.90;;
49784;SDS011;35679;38.732;-121.358;2023-05-10T10:58:58;2.10;;;2.00;;
49784;SDS011;35679;38.732;-121.358;2023-05-10T11:01:51;2.10;;;2.00;;
49784;SDS011;35679;38.732;-121.358;2023-05-10T11:04:41;2.10;;;1.97;;
49784;SDS011;35679;38.732;-121.358;2023-05-10T11:07:32;2.08;;;1.98;;
49784;SDS011;35679;38.732;-121.358;2023-05-10T11:10:22;3.25;;;2.00;;
49784;SDS011;35679;38.732;-121.358;2023-05-10T11:13:12;2.30;;;2.10;;
49784;SDS011;35679;38.732;-121.358;2023-05-10T11:19:03;2.33;;;2.22;;
49784;SDS011;35679;38.732;-121.358;2023-05-10T11:24:58;2.08;;;1.98;;
49784;SDS011;35679;38.732;-121.358;2023-05-10T11:27:48;1.90;;;1.90;;
49784;SDS011;35679;38.732;-121.358;2023-05-10T11:30:41;2.13;;;2.00;;
49784;SDS011;35679;38.732;-121.358;2023-05-10T11:33:41;2.03;;;1.92;;
49784;SDS011;35679;38.732;-121.358;2023-05-10T11:36:35;2.85;;;2.25;;
49784;SDS011;35679;38.732;-121.358;2023-05-10T11:39:25;2.08;;;1.98;;
49784;SDS011;35679;38.732;-121.358;2023-05-10T11:42:16;2.35;;;2.13;;
49784;SDS011;35679;38.732;-121.358;2023-05-10T11:45:05;2.75;;;2.20;;
49784;SDS011;35679;38.732;-121.358;2023-05-10T11:47:56;1.80;;;1.80;;
49784;SDS011;35679;38.732;-121.358;2023-05-10T11:50:46;1.90;;;1.80;;
49784;SDS011;35679;38.732;-121.358;2023-05-10T11:53:35;2.03;;;1.92;;
49784;SDS011;35679;38.732;-121.358;2023-05-10T11:56:24;2.47;;;2.10;;
49784;SDS011;35679;38.732;-121.358;2023-05-10T11:59:14;1.90;;;1.80;;
49784;SDS011;35679;38.732;-121.358;2023-05-10T12:02:04;2.05;;;1.90;;
49784;SDS011;35679;38.732;-121.358;2023-05-10T12:04:53;1.85;;;1.70;;
49784;SDS011;35679;38.732;-121.358;2023-05-10T12:07:44;2.08;;;1.95;;
49784;SDS011;35679;38.732;-121.358;2023-05-10T12:10:34;2.42;;;2.33;;
49784;SDS011;35679;38.732;-121.358;2023-05-10T12:13:23;2.00;;;1.90;;
49784;SDS011;35679;38.732;-121.358;2023-05-10T12:19:06;1.90;;;1.80;;
49784;SDS011;35679;38.732;-121.358;2023-05-10T12:21:56;3.70;;;2.45;;
49784;SDS011;35679;38.732;-121.358;2023-05-10T12:24:45;2.13;;;1.92;;
49784;SDS011;35679;38.732;-121.358;2023-05-10T12:27:34;2.10;;;2.00;;
49784;SDS011;35679;38.732;-121.358;2023-05-10T12:30:27;2.00;;;1.90;;
49784;SDS011;35679;38.732;-121.358;2023-05-10T12:33:17;1.92;;;1.83;;
49784;SDS011;35679;38.732;-121.358;2023-05-10T12:36:06;2.00;;;1.90;;
49784;SDS011;35679;38.732;-121.358;2023-05-10T12:39:02;2.42;;;1.80;;
49784;SDS011;35679;38.732;-121.358;2023-05-10T12:41:52;1.90;;;1.80;;
49784;SDS011;35679;38.732;-121.358;2023-05-10T12:44:41;1.80;;;1.80;;
49784;SDS011;35679;38.732;-121.358;2023-05-10T12:47:34;1.92;;;1.85;;
49784;SDS011;35679;38.732;-121.358;2023-05-10T12:50:23;1.90;;;1.80;;
49784;SDS011;35679;38.732;-121.358;2023-05-10T12:53:13;1.95;;;1.80;;
49784;SDS011;35679;38.732;-121.358;2023-05-10T12:56:06;1.98;;;1.88;;
49784;SDS011;35679;38.732;-121.358;2023-05-10T12:58:55;1.98;;;1.88;;
49784;SDS011;35679;38.732;-121.358;2023-05-10T13:01:45;1.65;;;1.60;;
49784;SDS011;35679;38.732;-121.358;2023-05-10T13:04:34;1.90;;;1.80;;
49784;SDS011;35679;38.732;-121.358;2023-05-10T13:07:25;4.43;;;1.85;;
49784;SDS011;35679;38.732;-121.358;2023-05-10T13:10:15;1.90;;;1.80;;
49784;SDS011;35679;38.732;-121.358;2023-05-10T13:13:05;1.80;;;1.70;;
49784;SDS011;35679;38.732;-121.358;2023-05-10T13:15:55;2.03;;;1.85;;
49784;SDS011;35679;38.732;-121.358;2023-05-10T13:18:45;1.77;;;1.67;;
49784;SDS011;35679;38.732;-121.358;2023-05-10T13:21:34;1.60;;;1.60;;
49784;SDS011;35679;38.732;-121.358;2023-05-10T13:24:24;2.00;;;1.65;;
49784;SDS011;35679;38.732;-121.358;2023-05-10T13:27:13;1.65;;;1.55;;
49784;SDS011;35679;38.732;-121.358;2023-05-10T13:30:02;1.80;;;1.70;;
49784;SDS011;35679;38.732;-121.358;2023-05-10T13:32:52;2.90;;;1.90;;
49784;SDS011;35679;38.732;-121.358;2023-05-10T13:35:42;1.70;;;1.60;;
49784;SDS011;35679;38.732;-121.358;2023-05-10T13:38:31;3.17;;;1.70;;
49784;SDS011;35679;38.732;-121.358;2023-05-10T13:41:20;1.80;;;1.70;;
49784;SDS011;35679;38.732;-121.358;2023-05-10T13:44:11;2.28;;;1.92;;
49784;SDS011;35679;38.732;-121.358;2023-05-10T13:47:02;2.13;;;1.80;;
49784;SDS011;35679;38.732;-121.358;2023-05-10T13:49:51;1.75;;;1.65;;
49784;SDS011;35679;38.732;-121.358;2023-05-10T13:52:41;1.80;;;1.70;;
49784;SDS011;35679;38.732;-121.358;2023-05-10T13:55:31;1.70;;;1.60;;
49784;SDS011;35679;38.732;-121.358;2023-05-10T13:58:20;1.83;;;1.73;;
49784;SDS011;35679;38.732;-121.358;2023-05-10T14:01:09;1.70;;;1.60;;
49784;SDS011;35679;38.732;-121.358;2023-05-10T14:04:00;2.40;;;1.80;;
49784;SDS011;35679;38.732;-121.358;2023-05-10T14:06:50;1.60;;;1.60;;
49784;SDS011;35679;38.732;-121.358;2023-05-10T14:09:40;1.75;;;1.65;;
49784;SDS011;35679;38.732;-121.358;2023-05-10T14:12:30;1.80;;;1.70;;
49784;SDS011;35679;38.732;-121.358;2023-05-10T14:15:19;1.77;;;1.67;;
49784;SDS011;35679;38.732;-121.358;2023-05-10T14:18:09;1.73;;;1.63;;
49784;SDS011;35679;38.732;-121.358;2023-05-10T14:20:58;1.85;;;1.70;;
49784;SDS011;35679;38.732;-121.358;2023-05-10T14:23:48;1.90;;;1.80;;
49784;SDS011;35679;38.732;-121.358;2023-05-10T14:26:37;1.98;;;1.88;;
49784;SDS011;35679;38.732;-121.358;2023-05-10T14:29:26;1.88;;;1.77;;
49784;SDS011;35679;38.732;-121.358;2023-05-10T14:32:15;2.28;;;1.77;;
49784;SDS011;35679;38.732;-121.358;2023-05-10T14:35:05;2.35;;;1.70;;
49784;SDS011;35679;38.732;-121.358;2023-05-10T14:37:59;1.83;;;1.63;;
49784;SDS011;35679;38.732;-121.358;2023-05-10T14:40:48;1.70;;;1.60;;
49784;SDS011;35679;38.732;-121.358;2023-05-10T14:43:38;2.17;;;1.83;;
49784;SDS011;35679;38.732;-121.358;2023-05-10T14:46:27;1.85;;;1.55;;
49784;SDS011;35679;38.732;-121.358;2023-05-10T14:49:18;1.88;;;1.77;;
49784;SDS011;35679;38.732;-121.358;2023-05-10T14:52:07;2.53;;;1.80;;
49784;SDS011;35679;38.732;-121.358;2023-05-10T14:54:56;1.60;;;1.60;;
49784;SDS011;35679;38.732;-121.358;2023-05-10T14:57:47;2.35;;;1.90;;
49784;SDS011;35679;38.732;-121.358;2023-05-10T15:00:38;1.83;;;1.73;;
49784;SDS011;35679;38.732;-121.358;2023-05-10T15:03:28;2.05;;;1.65;;
49784;SDS011;35679;38.732;-121.358;2023-05-10T15:06:22;1.80;;;1.70;;
49784;SDS011;35679;38.732;-121.358;2023-05-10T15:09:15;1.80;;;1.70;;
49784;SDS011;35679;38.732;-121.358;2023-05-10T15:12:05;2.30;;;1.80;;
49784;SDS011;35679;38.732;-121.358;2023-05-10T15:14:54;2.20;;;1.70;;
49784;SDS011;35679;38.732;-121.358;2023-05-10T15:17:44;2.10;;;1.70;;
49784;SDS011;35679;38.732;-121.358;2023-05-10T15:20:34;3.63;;;1.98;;
49784;SDS011;35679;38.732;-121.358;2023-05-10T15:23:24;3.28;;;1.90;;
49784;SDS011;35679;38.732;-121.358;2023-05-10T15:26:13;2.10;;;2.00;;
49784;SDS011;35679;38.732;-121.358;2023-05-10T15:29:02;2.97;;;1.80;;
49784;SDS011;35679;38.732;-121.358;2023-05-10T15:31:52;1.65;;;1.60;;
49784;SDS011;35679;38.732;-121.358;2023-05-10T15:34:41;1.80;;;1.70;;
49784;SDS011;35679;38.732;-121.358;2023-05-10T15:37:30;1.80;;;1.70;;
49784;SDS011;35679;38.732;-121.358;2023-05-10T15:40:20;1.88;;;1.60;;
49784;SDS011;35679;38.732;-121.358;2023-05-10T15:43:09;3.45;;;1.98;;
49784;SDS011;35679;38.732;-121.358;2023-05-10T15:45:59;2.47;;;1.80;;
49784;SDS011;35679;38.732;-121.358;2023-05-10T15:48:48;2.28;;;1.80;;
49784;SDS011;35679;38.732;-121.358;2023-05-10T15:51:37;2.60;;;1.90;;
49784;SDS011;35679;38.732;-121.358;2023-05-10T15:54:26;3.97;;;1.90;;
49784;SDS011;35679;38.732;-121.358;2023-05-10T15:57:16;2.40;;;1.70;;
49784;SDS011;35679;38.732;-121.358;2023-05-10T16:00:07;2.80;;;1.73;;
49784;SDS011;35679;38.732;-121.358;2023-05-10T16:03:00;1.90;;;1.80;;
49784;SDS011;35679;38.732;-121.358;2023-05-10T16:05:49;1.80;;;1.70;;
49784;SDS011;35679;38.732;-121.358;2023-05-10T16:08:39;2.63;;;1.95;;
49784;SDS011;35679;38.732;-121.358;2023-05-10T16:11:28;2.70;;;2.00;;
49784;SDS011;35679;38.732;-121.358;2023-05-10T16:14:18;2.40;;;1.90;;
49784;SDS011;35679;38.732;-121.358;2023-05-10T16:17:10;1.87;;;1.77;;
49784;SDS011;35679;38.732;-121.358;2023-05-10T16:19:59;2.60;;;2.15;;
49784;SDS011;35679;38.732;-121.358;2023-05-10T16:22:49;2.20;;;2.00;;
49784;SDS011;35679;38.732;-121.358;2023-05-10T16:25:38;1.88;;;1.77;;
49784;SDS011;35679;38.732;-121.358;2023-05-10T16:28:27;2.03;;;1.90;;
49784;SDS011;35679;38.732;-121.358;2023-05-10T16:31:17;2.92;;;2.10;;
49784;SDS011;35679;38.732;-121.358;2023-05-10T16:34:07;2.75;;;1.90;;
49784;SDS011;35679;38.732;-121.358;2023-05-10T16:36:56;3.53;;;2.00;;
49784;SDS011;35679;38.732;-121.358;2023-05-10T16:39:46;3.47;;;1.80;;
49784;SDS011;35679;38.732;-121.358;2023-05-10T16:42:35;2.05;;;1.88;;
49784;SDS011;35679;38.732;-121.358;2023-05-10T16:45:25;2.17;;;2.00;;
49784;SDS011;35679;38.732;-121.358;2023-05-10T16:48:14;2.35;;;2.15;;
49784;SDS011;35679;38.732;-121.358;2023-05-10T16:51:03;2.10;;;2.00;;
49784;SDS011;35679;38.732;-121.358;2023-05-10T16:53:52;1.90;;;1.70;;
49784;SDS011;35679;38.732;-121.358;2023-05-10T16:56:42;2.00;;;1.73;;
49784;SDS011;35679;38.732;-121.358;2023-05-10T16:59:31;1.85;;;1.75;;
49784;SDS011;35679;38.732;-121.358;2023-05-10T17:02:21;2.13;;;1.92;;
49784;SDS011;35679;38.732;-121.358;2023-05-10T17:05:11;2.78;;;1.83;;
49784;SDS011;35679;38.732;-121.358;2023-05-10T17:08:00;2.03;;;1.90;;
49784;SDS011;35679;38.732;-121.358;2023-05-10T17:10:50;2.45;;;1.95;;
49784;SDS011;35679;38.732;-121.358;2023-05-10T17:13:39;2.08;;;1.70;;